메인 페이지
METAR-TAF:

METAR-TAF

공항 :

머리디언, 미시시피, 미국

위도: 32-32-47N, 경도: 088-32-35W, 고도: 96m

현재 날씨관측

예보는 28분 전, 11:56시(UTC)에 발표되었습니다.
서북서3kt
온도 4°C
습도 93%
기압 1021 hPa
시정: 16.1km
고도 20000ft 상공 구름 조금
고도 30000ft 상공 구름 보통

METAR: KNMM 191156Z 29003KT 10SM FEW200 SCT300 04/03 A3016 RMK AO2 SLP226 T00440033 10072 20044 53000 $

시각: 06:24 (12:24 UTC)

예보

예보 대상 시간: 19일 07시부터 20일 07시까지 (UTC)
여러 방향의 바람 6kt
시정 10km 이상
고도 5000ft 상공 구름 조금
고도 20000ft 상공 구름 보통
전환 중
19일 13시부터 19일 15시까지 (UTC)
여러 방향의 바람 6kt
시정 10km 이상
고도 5000ft 상공 구름 조금
고도 6000ft 상공 구름 보통
고도 9000ft 상공 구름 많음
전환 중
19일 18시부터 19일 20시까지 (UTC)
여러 방향의 바람 6kt
시정 10km 이상
고도 4000ft 상공 구름 조금
고도 5000ft 상공 구름 보통
고도 7000ft 상공 구름 많음
시계 내 소나기
일시적
19일 21시부터 20일 03시까지 (UTC)
시정: 8000m
고도 3500ft 상공 구름 보통
고도 4500ft 상공 구름 많음
고도 6500ft 상공 흐림
소나기
전환 중
20일 04시부터 20일 06시까지 (UTC)
북북서8kt
시정 10km 이상
고도 5000ft 상공 구름 조금
고도 6000ft 상공 구름 보통
고도 9000ft 상공 구름 많음

TAF: KNMM 1907/2007 VRB06KT 9999 FEW050 SCT200 QNH3011INS BECMG 1913/1915 VRB06KT 9999 FEW050 SCT060 BKN090 QNH3010INS BECMG 1918/1920 VRB06KT 9999 VCSH FEW040 SCT050 BKN070 QNH3007INS TEMPO 1921/2003 8000 SHRA SCT035 BKN045 OVC065 BECMG 2004/2006 33008KT 9999 NSW FEW050 SCT060 BKN090 QNH3009INS T08/1912Z T16/1921Z FN00178

4,000개 이상의 공항 관측 자료 및 예보 (METAR 및 TAF 보고).

지도상에서 검색 가능한 기상관측소가 노란 점과 빨간 점으로 표시되어 있습니다.

기상관측소 명을 보려면 표시 위로 마우스를 이동하세요.

날씨 관측과 예보를 보려면 클릭하세요.

지도 변경 : 확대하려면 엑스 표시가 있는 녹색 버튼, 축소하려면 빼기 표시가 있는 녹색 버튼, 다음 페이지의 지도를 보려면 녹색 화살표를 클릭하세요.


METAR-TAF: